createdAt,value
2022-10-04T00:01:08.200Z,17.70
2022-10-04T00:03:41.545Z,18.40
2022-10-04T00:06:16.378Z,23.80
2022-10-04T00:08:48.482Z,21.40
2022-10-04T00:11:20.298Z,21.00
2022-10-04T00:13:52.187Z,21.80
2022-10-04T00:16:25.756Z,22.70
2022-10-04T00:19:03.857Z,25.30
2022-10-04T00:22:03.516Z,23.00
2022-10-04T00:24:35.741Z,28.40
2022-10-04T00:27:24.003Z,23.80
2022-10-04T00:30:20.782Z,24.80
2022-10-04T00:33:02.747Z,20.20
2022-10-04T00:35:50.501Z,21.90
2022-10-04T00:38:27.272Z,18.30
2022-10-04T00:41:00.408Z,17.00
2022-10-04T00:43:36.716Z,27.80
2022-10-04T00:46:09.742Z,23.30
2022-10-04T00:48:44.833Z,24.80
2022-10-04T00:51:21.836Z,18.50
2022-10-04T00:53:56.705Z,16.90
2022-10-04T00:56:31.013Z,16.10
2022-10-04T00:59:22.533Z,13.20
2022-10-04T01:01:56.551Z,15.50
2022-10-04T01:04:29.509Z,16.60
2022-10-04T01:07:00.329Z,20.40
2022-10-04T01:09:34.148Z,19.90
2022-10-04T01:12:09.700Z,20.10
2022-10-04T01:14:45.876Z,17.40
2022-10-04T01:17:14.312Z,21.40
2022-10-04T01:19:52.890Z,19.90
2022-10-04T01:22:35.954Z,22.50
2022-10-04T01:25:05.895Z,18.30
2022-10-04T01:27:37.128Z,22.80
2022-10-04T01:30:10.025Z,18.50
2022-10-04T01:32:39.596Z,17.50
2022-10-04T01:35:11.673Z,17.30
2022-10-04T01:37:40.554Z,19.00
2022-10-04T01:40:11.213Z,19.00
2022-10-04T01:42:44.008Z,21.60
2022-10-04T01:45:16.791Z,20.70
2022-10-04T01:47:50.518Z,20.20
2022-10-04T01:50:26.881Z,20.30
2022-10-04T01:53:02.091Z,18.20
2022-10-04T01:55:34.144Z,18.10
2022-10-04T01:58:07.500Z,22.30
2022-10-04T02:00:37.393Z,18.30
2022-10-04T02:03:11.458Z,17.70
2022-10-04T02:05:44.478Z,23.40
2022-10-04T02:08:17.871Z,22.10
2022-10-04T02:10:50.332Z,18.70
2022-10-04T02:13:19.606Z,16.20
2022-10-04T02:15:50.104Z,21.70
2022-10-04T02:18:20.419Z,17.90
2022-10-04T02:20:50.500Z,17.40
2022-10-04T02:23:20.526Z,19.10
2022-10-04T02:25:50.841Z,18.80
2022-10-04T02:28:21.578Z,15.10
2022-10-04T02:31:10.792Z,18.80
2022-10-04T02:33:43.985Z,20.50
2022-10-04T02:36:16.003Z,20.00
2022-10-04T02:38:47.917Z,20.90
2022-10-04T02:41:25.892Z,18.30
2022-10-04T02:43:58.005Z,19.80
2022-10-04T02:46:30.652Z,17.50
2022-10-04T02:49:03.219Z,15.70
2022-10-04T02:51:37.914Z,20.20
2022-10-04T02:54:14.811Z,25.50
2022-10-04T02:56:44.341Z,20.10
2022-10-04T02:59:16.235Z,22.60
2022-10-04T03:01:51.434Z,22.40
2022-10-04T03:04:23.084Z,24.20
2022-10-04T03:06:52.722Z,23.20
2022-10-04T03:09:28.814Z,21.80
2022-10-04T03:11:59.585Z,22.30
2022-10-04T03:14:30.110Z,24.10
2022-10-04T03:17:03.259Z,23.70
2022-10-04T03:19:33.043Z,24.90
2022-10-04T03:22:03.916Z,21.30
2022-10-04T03:24:35.590Z,24.10
2022-10-04T03:27:06.910Z,24.80
2022-10-04T03:29:35.633Z,22.20
2022-10-04T03:32:06.162Z,21.20
2022-10-04T03:34:37.366Z,23.00
2022-10-04T03:37:09.912Z,22.90
2022-10-04T03:39:40.029Z,21.00
2022-10-04T03:42:13.416Z,21.70
2022-10-04T03:44:44.024Z,28.50
2022-10-04T03:47:15.457Z,23.80
2022-10-04T03:49:50.534Z,24.20
2022-10-04T03:52:22.392Z,15.40
2022-10-04T03:54:53.519Z,20.10
2022-10-04T03:57:23.711Z,22.10
2022-10-04T03:59:54.583Z,21.00
2022-10-04T04:02:32.235Z,22.60
2022-10-04T04:05:06.823Z,19.60
2022-10-04T04:07:38.558Z,17.50
2022-10-04T04:10:16.983Z,19.20
2022-10-04T04:12:49.147Z,18.70
2022-10-04T04:15:19.017Z,20.70
2022-10-04T04:17:48.916Z,16.50
2022-10-04T04:20:22.247Z,21.20
2022-10-04T04:22:58.540Z,20.10
2022-10-04T04:25:28.156Z,20.30
2022-10-04T04:28:07.514Z,16.80
2022-10-04T04:30:38.090Z,16.00
2022-10-04T04:33:12.408Z,17.90
2022-10-04T04:35:43.052Z,16.50
2022-10-04T04:38:19.583Z,15.50
2022-10-04T04:40:48.926Z,17.10
2022-10-04T04:43:19.760Z,19.20
2022-10-04T04:46:02.959Z,17.00
2022-10-04T04:48:39.343Z,18.70
2022-10-04T04:51:13.198Z,17.70
2022-10-04T04:53:44.397Z,14.40
2022-10-04T04:56:17.402Z,15.30
2022-10-04T04:58:49.452Z,18.20
2022-10-04T05:01:23.539Z,21.60
2022-10-04T05:04:04.223Z,15.00
2022-10-04T05:06:34.243Z,13.90
2022-10-04T05:09:02.817Z,18.00
2022-10-04T05:11:34.435Z,19.30
2022-10-04T05:14:08.396Z,19.70
2022-10-04T05:16:40.370Z,14.10
2022-10-04T05:19:15.296Z,18.40
2022-10-04T05:21:46.501Z,15.40
2022-10-04T05:24:22.047Z,15.40
2022-10-04T05:26:53.291Z,19.80
2022-10-04T05:29:25.339Z,18.40
2022-10-04T05:32:02.152Z,13.00
2022-10-04T05:34:34.611Z,17.10
2022-10-04T05:37:22.977Z,17.40
2022-10-04T05:39:59.676Z,14.80
2022-10-04T05:42:38.286Z,17.30
2022-10-04T05:45:17.579Z,17.20
2022-10-04T05:47:47.674Z,16.70
2022-10-04T05:50:20.983Z,13.60
2022-10-04T05:52:52.270Z,13.90
2022-10-04T05:55:28.389Z,21.20
2022-10-04T05:58:17.597Z,19.40
2022-10-04T06:01:02.704Z,15.10
2022-10-04T06:03:43.968Z,14.20
2022-10-04T06:06:18.222Z,15.20
2022-10-04T06:08:59.997Z,15.10
2022-10-04T06:11:40.142Z,16.70
2022-10-04T06:14:30.012Z,14.20
2022-10-04T06:17:21.143Z,13.60
2022-10-04T06:20:09.576Z,15.40
2022-10-04T06:22:46.397Z,18.60
2022-10-04T06:25:20.976Z,15.70
2022-10-04T06:27:54.404Z,18.60
2022-10-04T06:30:24.049Z,14.60
2022-10-04T06:33:21.424Z,14.50
2022-10-04T06:36:26.265Z,17.50
2022-10-04T06:39:13.011Z,18.60
2022-10-04T06:42:14.246Z,14.00
2022-10-04T06:44:54.352Z,17.60
2022-10-04T06:47:35.630Z,17.30
2022-10-04T06:50:16.079Z,15.10
2022-10-04T06:53:01.836Z,12.60
2022-10-04T06:55:47.160Z,15.90
2022-10-04T06:58:45.434Z,15.70
2022-10-04T07:01:24.379Z,14.80
2022-10-04T07:03:57.539Z,15.60
2022-10-04T07:06:30.601Z,16.20
2022-10-04T07:09:02.340Z,12.20
2022-10-04T07:11:42.423Z,15.10
2022-10-04T07:14:15.609Z,12.20
2022-10-04T07:16:49.288Z,14.30
2022-10-04T07:19:32.410Z,14.00
2022-10-04T07:22:11.678Z,11.80
2022-10-04T07:24:51.787Z,11.60
2022-10-04T07:27:22.382Z,10.90
2022-10-04T07:29:55.994Z,11.50
2022-10-04T07:32:27.246Z,10.20
2022-10-04T07:34:59.620Z,11.40
2022-10-04T07:37:31.134Z,15.80
2022-10-04T07:40:04.225Z,13.60
2022-10-04T07:42:40.074Z,14.90
2022-10-04T07:45:16.812Z,13.70
2022-10-04T07:47:45.905Z,9.60
2022-10-04T07:50:23.772Z,10.70
2022-10-04T07:52:56.993Z,9.00
2022-10-04T07:55:29.679Z,8.70
2022-10-04T07:58:13.945Z,10.90
2022-10-04T08:00:49.325Z,9.40
2022-10-04T08:03:56.693Z,10.20
2022-10-04T08:06:33.492Z,12.80
2022-10-04T08:09:18.196Z,10.10
2022-10-04T08:11:54.047Z,10.20
2022-10-04T08:14:28.046Z,9.10
2022-10-04T08:17:15.641Z,9.70
2022-10-04T08:19:50.106Z,10.90
2022-10-04T08:22:27.856Z,9.50
2022-10-04T08:25:04.356Z,10.00
2022-10-04T08:28:07.136Z,10.70
2022-10-04T08:30:54.176Z,8.40
2022-10-04T08:33:29.326Z,9.20
2022-10-04T08:36:11.578Z,13.70
2022-10-04T08:38:47.953Z,7.80
2022-10-04T08:41:50.935Z,9.70
2022-10-04T08:44:58.000Z,6.70
2022-10-04T08:48:18.526Z,9.20
2022-10-04T08:51:15.098Z,7.50
2022-10-04T08:54:14.724Z,10.40
2022-10-04T08:57:04.986Z,6.30
2022-10-04T09:00:08.029Z,6.60
2022-10-04T09:03:04.499Z,8.40
2022-10-04T09:05:47.310Z,6.50
2022-10-04T09:08:50.113Z,6.90
2022-10-04T09:11:48.082Z,7.70
2022-10-04T09:14:43.575Z,7.30
2022-10-04T09:17:22.550Z,4.70
2022-10-04T09:20:26.393Z,8.40
2022-10-04T09:23:00.735Z,8.60
2022-10-04T09:26:00.219Z,8.50
2022-10-04T09:29:08.649Z,8.90
2022-10-04T09:32:14.646Z,6.80
2022-10-04T09:34:57.267Z,5.90
2022-10-04T09:37:34.140Z,8.40
2022-10-04T09:40:45.357Z,8.40
2022-10-04T09:43:45.696Z,9.80
2022-10-04T09:46:24.055Z,7.80
2022-10-04T09:49:01.759Z,10.60
2022-10-04T09:51:52.779Z,8.70
2022-10-04T09:54:33.011Z,9.80
2022-10-04T09:57:15.602Z,6.40
2022-10-04T09:59:57.837Z,7.50
2022-10-04T10:02:57.089Z,10.30
2022-10-04T10:05:47.560Z,7.40
2022-10-04T10:08:28.155Z,7.40
2022-10-04T10:11:25.264Z,5.90
2022-10-04T10:14:25.640Z,6.80
2022-10-04T10:17:02.463Z,6.00
2022-10-04T10:20:16.733Z,6.30
2022-10-04T10:23:30.871Z,5.70
2022-10-04T10:26:25.901Z,6.90
2022-10-04T10:29:14.177Z,4.10
2022-10-04T10:31:57.296Z,7.10
2022-10-04T10:34:41.610Z,6.80
2022-10-04T10:37:15.359Z,4.90
2022-10-04T10:40:30.067Z,5.20
2022-10-04T10:43:26.403Z,4.90
2022-10-04T10:46:04.819Z,8.70
2022-10-04T10:48:47.974Z,6.60
2022-10-04T10:51:26.924Z,5.90
2022-10-04T10:54:34.427Z,3.50
2022-10-04T10:57:14.406Z,2.10
2022-10-04T11:00:31.756Z,4.90
2022-10-04T11:03:20.546Z,4.10
2022-10-04T11:06:19.967Z,3.90
2022-10-04T11:09:31.368Z,6.40
2022-10-04T11:12:40.207Z,6.10
2022-10-04T11:15:33.679Z,5.70
2022-10-04T11:18:24.006Z,7.30
2022-10-04T11:21:26.927Z,5.50
2022-10-04T11:24:28.704Z,6.20
2022-10-04T11:27:11.440Z,7.00
2022-10-04T11:29:56.420Z,8.00
2022-10-04T11:32:56.681Z,7.90
2022-10-04T11:35:50.851Z,6.40
2022-10-04T11:38:33.662Z,6.50
2022-10-04T11:41:16.149Z,8.20
2022-10-04T11:44:19.609Z,5.80
2022-10-04T11:46:52.463Z,5.20
2022-10-04T11:49:42.587Z,8.20
2022-10-04T11:52:42.211Z,6.30
2022-10-04T11:55:39.746Z,6.30
2022-10-04T11:58:14.733Z,5.90
2022-10-04T12:01:02.770Z,4.20
2022-10-04T12:03:53.028Z,5.50
2022-10-04T12:06:45.225Z,4.90
2022-10-04T12:09:19.922Z,5.70
2022-10-04T12:12:38.965Z,6.80
2022-10-04T12:15:31.537Z,6.00
2022-10-04T12:18:27.960Z,4.50
2022-10-04T12:21:29.638Z,4.70
2022-10-04T12:24:23.069Z,5.10
2022-10-04T12:27:16.264Z,9.10
2022-10-04T12:30:24.746Z,4.50
2022-10-04T12:33:17.120Z,5.60
2022-10-04T12:35:57.499Z,3.80
2022-10-04T12:38:40.422Z,3.60
2022-10-04T12:41:15.755Z,4.80
2022-10-04T12:43:51.868Z,3.80
2022-10-04T12:46:30.837Z,7.00
2022-10-04T12:49:27.583Z,5.20
2022-10-04T12:52:05.904Z,3.80
2022-10-04T12:54:40.447Z,4.10
2022-10-04T12:57:42.917Z,5.00
2022-10-04T13:00:19.277Z,3.70
2022-10-04T13:03:10.835Z,5.00
2022-10-04T13:05:49.814Z,4.40
2022-10-04T13:08:24.608Z,4.30
2022-10-04T13:11:05.178Z,8.20
2022-10-04T13:13:48.986Z,15.30
2022-10-04T13:19:19.459Z,7.50
2022-10-04T13:22:02.432Z,5.20
2022-10-04T13:24:55.960Z,9.40
2022-10-04T13:27:32.881Z,7.80
2022-10-04T13:30:06.878Z,7.10
2022-10-04T13:32:45.594Z,10.10
2022-10-04T13:35:20.861Z,4.40
2022-10-04T13:38:02.433Z,8.70
2022-10-04T13:40:37.549Z,7.80
2022-10-04T13:43:34.551Z,8.00
2022-10-04T13:46:12.666Z,11.40
2022-10-04T13:48:48.201Z,5.40
2022-10-04T13:51:28.789Z,5.00
2022-10-04T13:54:24.977Z,4.80
2022-10-04T13:57:11.625Z,5.00
2022-10-04T13:59:44.290Z,6.30
2022-10-04T14:02:51.893Z,4.70
2022-10-04T14:05:50.965Z,5.80
2022-10-04T14:08:47.907Z,6.10
2022-10-04T14:11:41.121Z,4.30
2022-10-04T14:14:43.040Z,7.80
2022-10-04T14:18:04.025Z,8.10
2022-10-04T14:21:19.626Z,3.90
2022-10-04T14:24:25.706Z,4.40
2022-10-04T14:27:20.297Z,5.20
2022-10-04T14:30:04.127Z,7.20
2022-10-04T14:33:02.238Z,17.20
2022-10-04T14:35:35.686Z,4.40
2022-10-04T14:38:37.289Z,12.40
2022-10-04T14:41:28.378Z,6.10
2022-10-04T14:44:18.568Z,4.70
2022-10-04T14:46:57.585Z,6.30
2022-10-04T14:49:40.706Z,6.10
2022-10-04T14:52:21.827Z,6.10
2022-10-04T14:54:54.126Z,5.70
2022-10-04T14:57:42.170Z,14.90
2022-10-04T15:00:23.960Z,6.00
2022-10-04T15:03:28.612Z,5.00
2022-10-04T15:06:21.519Z,5.50
2022-10-04T15:09:10.701Z,5.80
2022-10-04T15:12:02.430Z,4.90
2022-10-04T15:14:41.221Z,5.10
2022-10-04T15:17:24.450Z,8.70
2022-10-04T15:20:02.676Z,6.00
2022-10-04T15:22:40.920Z,4.50
2022-10-04T15:25:40.277Z,6.30
2022-10-04T15:28:16.676Z,6.50
2022-10-04T15:30:51.628Z,7.20
2022-10-04T15:33:31.436Z,11.20
2022-10-04T15:36:23.312Z,18.40
2022-10-04T15:39:01.356Z,10.10
2022-10-04T15:41:40.930Z,6.70
2022-10-04T15:44:40.364Z,8.50
2022-10-04T15:47:17.187Z,13.40
2022-10-04T15:50:00.065Z,10.10
2022-10-04T15:53:10.648Z,11.40
2022-10-04T15:56:07.090Z,8.80
2022-10-04T15:59:03.910Z,9.20
2022-10-04T16:01:47.210Z,9.20
2022-10-04T16:04:37.220Z,13.30
2022-10-04T16:07:21.295Z,12.00
2022-10-04T16:09:52.728Z,13.70
2022-10-04T16:12:27.264Z,10.60
2022-10-04T16:14:59.207Z,9.80
2022-10-04T16:17:46.732Z,10.10
2022-10-04T16:20:54.651Z,11.50
2022-10-04T16:23:31.007Z,14.70
2022-10-04T16:26:02.715Z,15.20
2022-10-04T16:29:00.418Z,18.40
2022-10-04T16:31:44.220Z,18.20
2022-10-04T16:34:50.331Z,20.10
2022-10-04T16:37:34.022Z,19.00
2022-10-04T16:40:16.268Z,21.20
2022-10-04T16:42:52.394Z,25.10
2022-10-04T16:45:42.300Z,24.10
2022-10-04T16:48:30.694Z,27.90
2022-10-04T16:51:29.863Z,67.20
2022-10-04T16:54:04.511Z,34.00
2022-10-04T16:57:13.552Z,30.60
2022-10-04T16:59:47.871Z,37.70
2022-10-04T17:02:28.979Z,41.30
2022-10-04T17:05:22.148Z,36.50
2022-10-04T17:08:16.640Z,39.60
2022-10-04T17:11:09.358Z,49.20
2022-10-04T17:13:55.572Z,45.10
2022-10-04T17:16:30.591Z,40.10
2022-10-04T17:19:20.182Z,51.20
2022-10-04T17:22:00.887Z,46.30
2022-10-04T17:24:38.860Z,44.20
2022-10-04T17:27:27.046Z,44.50
2022-10-04T17:30:12.419Z,38.00
2022-10-04T17:32:51.217Z,46.20
2022-10-04T17:35:56.639Z,52.50
2022-10-04T17:38:33.673Z,43.30
2022-10-04T17:41:08.872Z,48.80
2022-10-04T17:43:43.178Z,54.90
2022-10-04T17:46:18.254Z,53.70
2022-10-04T17:49:11.741Z,56.10
2022-10-04T17:52:05.434Z,65.00
2022-10-04T17:55:00.241Z,60.20
2022-10-04T17:57:37.841Z,61.80
2022-10-04T18:00:10.255Z,231.20
2022-10-04T18:03:04.853Z,199.40
2022-10-04T18:05:45.899Z,224.60
2022-10-04T18:08:20.710Z,226.10
2022-10-04T18:10:52.501Z,174.30
2022-10-04T18:13:28.747Z,144.70
2022-10-04T18:16:03.388Z,141.30
2022-10-04T18:18:39.789Z,129.10
2022-10-04T18:21:21.878Z,105.70
2022-10-04T18:23:55.599Z,77.10
2022-10-04T18:26:27.270Z,78.50
2022-10-04T18:28:56.327Z,69.10
2022-10-04T18:31:30.705Z,88.30
2022-10-04T18:34:08.159Z,83.70
2022-10-04T18:36:53.266Z,74.60
2022-10-04T18:39:23.751Z,73.50
2022-10-04T18:42:18.944Z,74.00
2022-10-04T18:44:58.705Z,76.10
2022-10-04T18:47:36.508Z,72.20
2022-10-04T18:50:16.709Z,68.70
2022-10-04T18:52:56.699Z,67.20
2022-10-04T18:55:37.612Z,94.90
2022-10-04T18:58:37.735Z,94.80
2022-10-04T19:01:47.056Z,86.00
2022-10-04T19:04:21.198Z,80.70
2022-10-04T19:06:50.007Z,56.40
2022-10-04T19:09:23.590Z,56.20
2022-10-04T19:11:56.634Z,60.90
2022-10-04T19:14:29.864Z,69.40
2022-10-04T19:17:01.409Z,61.40
2022-10-04T19:19:44.309Z,71.90
2022-10-04T19:22:21.621Z,81.20
2022-10-04T19:25:02.373Z,85.30
2022-10-04T19:27:36.216Z,84.40
2022-10-04T19:30:16.483Z,78.60
2022-10-04T19:33:00.451Z,82.90
2022-10-04T19:35:45.897Z,77.30
2022-10-04T19:38:32.799Z,80.00
2022-10-04T19:41:07.036Z,82.90
2022-10-04T19:43:46.261Z,74.60
2022-10-04T19:46:26.118Z,70.50
2022-10-04T19:48:57.172Z,71.80
2022-10-04T19:51:33.234Z,75.20
2022-10-04T19:54:09.905Z,83.40
2022-10-04T19:56:43.210Z,74.20
2022-10-04T19:59:18.946Z,70.20
2022-10-04T20:01:52.147Z,75.40
2022-10-04T20:04:38.013Z,76.10
2022-10-04T20:07:18.931Z,72.40
2022-10-04T20:09:55.283Z,67.40
2022-10-04T20:12:34.689Z,70.10
2022-10-04T20:15:25.119Z,66.70
2022-10-04T20:18:02.117Z,70.90
2022-10-04T20:21:24.312Z,80.30
2022-10-04T20:23:58.498Z,75.10
2022-10-04T20:26:56.768Z,72.70
2022-10-04T20:30:03.883Z,73.40
2022-10-04T20:32:58.891Z,77.70
2022-10-04T20:36:06.463Z,74.00
2022-10-04T20:38:49.722Z,66.10
2022-10-04T20:42:01.376Z,65.90
2022-10-04T20:44:54.717Z,67.50
2022-10-04T20:47:39.445Z,69.90
2022-10-04T20:50:26.019Z,67.90
2022-10-04T20:52:58.371Z,72.40
2022-10-04T20:55:28.838Z,68.70
2022-10-04T20:58:00.319Z,66.00
2022-10-04T21:00:33.833Z,63.80
2022-10-04T21:03:13.370Z,65.60
2022-10-04T21:05:42.060Z,78.10
2022-10-04T21:08:22.357Z,85.10
2022-10-04T21:11:20.400Z,85.60
2022-10-04T21:13:56.369Z,83.90
2022-10-04T21:16:46.239Z,78.60
2022-10-04T21:19:49.731Z,76.10
2022-10-04T21:22:38.928Z,66.80
2022-10-04T21:25:33.797Z,69.90
2022-10-04T21:28:31.977Z,71.70
2022-10-04T21:31:02.870Z,69.50
2022-10-04T21:33:36.341Z,73.30
2022-10-04T21:36:06.861Z,70.80
2022-10-04T21:38:35.581Z,78.60
2022-10-04T21:41:05.368Z,68.00
2022-10-04T21:43:35.015Z,59.60
2022-10-04T21:46:03.744Z,61.60
2022-10-04T21:48:32.852Z,67.00
2022-10-04T21:51:03.741Z,55.70
2022-10-04T21:53:37.145Z,62.30
2022-10-04T21:56:07.462Z,58.10
2022-10-04T21:58:36.619Z,58.80
2022-10-04T22:01:08.002Z,57.30
2022-10-04T22:03:37.274Z,55.70
2022-10-04T22:06:07.242Z,53.50
2022-10-04T22:08:36.433Z,55.10
2022-10-04T22:11:05.293Z,54.00
2022-10-04T22:13:35.070Z,59.10
2022-10-04T22:16:08.111Z,54.40
2022-10-04T22:22:27.680Z,52.80
2022-10-04T22:24:56.424Z,49.90
2022-10-04T22:27:27.356Z,48.80
2022-10-04T22:29:56.369Z,45.80
2022-10-04T22:32:27.784Z,52.00
2022-10-04T22:35:00.115Z,47.00
2022-10-04T22:37:31.130Z,52.40
2022-10-04T22:39:59.913Z,53.30
2022-10-04T22:42:31.263Z,48.50
2022-10-04T22:45:02.727Z,45.50
2022-10-04T22:47:33.411Z,45.50
2022-10-04T22:50:03.686Z,49.00
2022-10-04T22:52:32.292Z,55.60
2022-10-04T22:55:02.954Z,52.60
2022-10-04T22:57:32.332Z,56.60
2022-10-04T23:00:02.346Z,51.20
2022-10-04T23:02:31.591Z,50.90
2022-10-04T23:05:14.012Z,55.20
2022-10-04T23:07:43.915Z,49.60
2022-10-04T23:10:15.912Z,52.20
2022-10-04T23:12:46.920Z,53.40
2022-10-04T23:15:18.953Z,65.50
2022-10-04T23:17:53.777Z,71.00
2022-10-04T23:20:23.258Z,58.50
2022-10-04T23:22:53.798Z,61.70
2022-10-04T23:25:25.039Z,63.40
2022-10-04T23:27:54.898Z,64.10
2022-10-04T23:30:25.017Z,64.50
2022-10-04T23:32:59.051Z,67.60
2022-10-04T23:35:31.888Z,60.90
2022-10-04T23:38:06.344Z,63.60
2022-10-04T23:40:35.596Z,70.60
2022-10-04T23:43:06.321Z,64.50
2022-10-04T23:45:41.394Z,67.90
2022-10-04T23:48:13.274Z,65.20
2022-10-04T23:50:43.985Z,70.20
2022-10-04T23:53:26.055Z,66.00
2022-10-04T23:55:55.920Z,75.60
2022-10-04T23:58:26.839Z,77.10
